Time;durP1;ratioP1;P1;durP2;ratioP2;P2;SDS_P1;SDS_P2;PMS_P1;PMS_P2;Temp;Humidity;BMP_temperature;BMP_pressure;BME280_temperature;BME280_humidity;BME280_pressure;Samples;Min_cycle;Max_cycle;Signal;HPM_P1;HPM_P2
2022/07/12 00:00:05;;;;;;;2.70;2.50;;;;;;;;;;5092831;28;20620;-51
2022/07/12 00:02:32;;;;;;;3.03;2.20;;;;;;;;;;5092658;28;20199;-50
2022/07/12 00:04:58;;;;;;;2.57;2.37;;;;;;;;;;5092851;28;20282;-51
2022/07/12 00:07:24;;;;;;;2.40;2.17;;;;;;;;;;5092707;28;20236;-51
2022/07/12 00:09:50;;;;;;;2.60;2.40;;;;;;;;;;5092453;28;20202;-50
2022/07/12 00:12:16;;;;;;;2.50;2.30;;;;;;;;;;5092791;28;20727;-50
2022/07/12 00:14:42;;;;;;;2.60;2.40;;;;;;;;;;5092073;28;20287;-50
2022/07/12 00:17:08;;;;;;;2.77;2.57;;;;;;;;;;5092581;28;20214;-50
2022/07/12 00:19:35;;;;;;;3.03;2.37;;;;;;;;;;5092303;28;20203;-50
2022/07/12 00:22:01;;;;;;;2.70;2.50;;;;;;;;;;5090650;28;20564;-51
2022/07/12 00:24:27;;;;;;;3.53;2.50;;;;;;;;;;5092311;28;20608;-51
2022/07/12 00:26:53;;;;;;;2.53;2.33;;;;;;;;;;5092560;28;20194;-51
2022/07/12 00:29:19;;;;;;;2.53;2.33;;;;;;;;;;5092593;28;20543;-52
2022/07/12 00:31:45;;;;;;;2.43;2.10;;;;;;;;;;5091584;28;20236;-52
2022/07/12 00:34:11;;;;;;;2.93;2.30;;;;;;;;;;5092422;28;20286;-53
2022/07/12 00:36:39;;;;;;;3.13;2.90;;;;;;;;;;5092070;28;20720;-54
2022/07/12 00:39:05;;;;;;;3.17;2.40;;;;;;;;;;5091947;28;20203;-53
2022/07/12 00:41:31;;;;;;;2.83;2.37;;;;;;;;;;5092387;28;20209;-52
2022/07/12 00:43:57;;;;;;;4.63;2.70;;;;;;;;;;5092426;28;20252;-53
2022/07/12 00:46:23;;;;;;;2.57;2.40;;;;;;;;;;5092427;28;20285;-53
2022/07/12 00:48:50;;;;;;;3.70;2.30;;;;;;;;;;5092314;28;20286;-53
2022/07/12 00:51:17;;;;;;;2.60;2.40;;;;;;;;;;5092305;28;20230;-52
2022/07/12 00:53:44;;;;;;;2.60;2.37;;;;;;;;;;5092157;28;20193;-53
2022/07/12 00:56:10;;;;;;;3.03;2.27;;;;;;;;;;5092286;28;20210;-53
2022/07/12 00:58:36;;;;;;;6.20;2.40;;;;;;;;;;5092027;28;20214;-53
2022/07/12 01:01:02;;;;;;;2.93;2.50;;;;;;;;;;5092159;28;20245;-53
2022/07/12 01:03:28;;;;;;;2.50;2.30;;;;;;;;;;5092053;28;20220;-53
2022/07/12 01:05:55;;;;;;;2.63;2.30;;;;;;;;;;5092027;28;20662;-53
2022/07/12 01:08:21;;;;;;;2.47;2.27;;;;;;;;;;5092088;28;20286;-53
2022/07/12 01:10:52;;;;;;;2.73;2.53;;;;;;;;;;5092108;28;20278;-53
2022/07/12 01:13:18;;;;;;;2.70;2.50;;;;;;;;;;5091933;28;20614;-53
2022/07/12 01:15:44;;;;;;;2.70;2.50;;;;;;;;;;5091889;28;20210;-53
2022/07/12 01:18:10;;;;;;;2.60;2.40;;;;;;;;;;5091920;28;20330;-53
2022/07/12 01:20:36;;;;;;;2.50;2.30;;;;;;;;;;5091599;28;20792;-52
2022/07/12 01:23:04;;;;;;;3.20;2.90;;;;;;;;;;5092152;28;20195;-53
2022/07/12 01:25:30;;;;;;;2.97;2.70;;;;;;;;;;5091893;28;20227;-53
2022/07/12 01:27:56;;;;;;;2.93;2.73;;;;;;;;;;5091695;28;20240;-53
2022/07/12 01:30:22;;;;;;;2.93;2.63;;;;;;;;;;5091825;28;20199;-53
2022/07/12 01:32:48;;;;;;;2.70;2.50;;;;;;;;;;5091848;28;20187;-52
2022/07/12 01:35:14;;;;;;;2.73;2.53;;;;;;;;;;5091462;28;20198;-53
2022/07/12 01:37:41;;;;;;;2.60;2.40;;;;;;;;;;5091552;28;20234;-53
2022/07/12 01:40:10;;;;;;;2.77;2.57;;;;;;;;;;5091403;28;20674;-52
2022/07/12 01:42:36;;;;;;;3.03;2.83;;;;;;;;;;5091609;28;20199;-53
2022/07/12 01:45:02;;;;;;;2.87;2.67;;;;;;;;;;5095565;28;20281;-52
2022/07/12 01:47:33;;;;;;;3.20;3.00;;;;;;;;;;5095415;28;20202;-53
2022/07/12 01:49:59;;;;;;;3.27;3.07;;;;;;;;;;5095384;28;20199;-53
2022/07/12 01:52:25;;;;;;;2.73;2.53;;;;;;;;;;5095463;28;20285;-52
2022/07/12 01:54:52;;;;;;;3.50;3.30;;;;;;;;;;5095267;28;20290;-54
2022/07/12 01:57:21;;;;;;;3.27;2.80;;;;;;;;;;5095379;28;20268;-53
2022/07/12 01:59:47;;;;;;;3.13;2.93;;;;;;;;;;5095215;28;20383;-52
2022/07/12 02:02:13;;;;;;;3.10;2.80;;;;;;;;;;5095309;28;20283;-52
2022/07/12 02:04:39;;;;;;;3.20;3.00;;;;;;;;;;5095071;28;20199;-52
2022/07/12 02:07:05;;;;;;;3.33;3.03;;;;;;;;;;5095304;28;20207;-53
2022/07/12 02:09:32;;;;;;;3.47;3.13;;;;;;;;;;5095024;28;20191;-53
2022/07/12 02:11:58;;;;;;;3.87;3.10;;;;;;;;;;5095065;28;20259;-53
2022/07/12 02:14:26;;;;;;;3.67;3.37;;;;;;;;;;5094966;28;20299;-53
2022/07/12 02:16:52;;;;;;;3.63;3.33;;;;;;;;;;5094732;28;20205;-53
2022/07/12 02:19:18;;;;;;;3.70;3.40;;;;;;;;;;5094917;28;20207;-52
2022/07/12 02:21:44;;;;;;;3.37;3.10;;;;;;;;;;5094676;28;20731;-53
2022/07/12 02:24:10;;;;;;;3.73;3.37;;;;;;;;;;5094806;28;20210;-53
2022/07/12 02:26:36;;;;;;;4.07;3.70;;;;;;;;;;5094668;28;20206;-53
2022/07/12 02:29:03;;;;;;;3.40;3.20;;;;;;;;;;5094839;28;20534;-52
2022/07/12 02:31:30;;;;;;;3.87;3.57;;;;;;;;;;5094464;28;20220;-52
2022/07/12 02:33:56;;;;;;;3.37;3.17;;;;;;;;;;5094480;28;20719;-53
2022/07/12 02:36:22;;;;;;;3.00;2.80;;;;;;;;;;5094642;28;20273;-52
2022/07/12 02:38:48;;;;;;;3.10;2.90;;;;;;;;;;5094472;28;20727;-52
2022/07/12 02:41:14;;;;;;;3.20;2.87;;;;;;;;;;5094466;28;20260;-53
2022/07/12 02:43:40;;;;;;;2.90;2.70;;;;;;;;;;5094395;28;20234;-52
2022/07/12 02:46:07;;;;;;;3.40;3.20;;;;;;;;;;5094351;28;20660;-52
2022/07/12 02:48:35;;;;;;;3.00;2.80;;;;;;;;;;5094417;28;20286;-53
2022/07/12 02:51:01;;;;;;;3.73;3.43;;;;;;;;;;5094392;28;20290;-53
2022/07/12 02:53:27;;;;;;;3.80;3.23;;;;;;;;;;5094162;28;20659;-52
2022/07/12 02:55:53;;;;;;;3.10;2.90;;;;;;;;;;5093417;28;20199;-53
2022/07/12 02:58:19;;;;;;;3.77;3.47;;;;;;;;;;5094103;28;20207;-53
2022/07/12 03:00:46;;;;;;;3.50;3.30;;;;;;;;;;5093747;28;20756;-53
2022/07/12 03:03:12;;;;;;;3.37;3.17;;;;;;;;;;5093676;28;20238;-53
2022/07/12 03:05:40;;;;;;;3.83;3.43;;;;;;;;;;5093279;28;20215;-52
2022/07/12 03:08:06;;;;;;;3.80;3.50;;;;;;;;;;5093832;28;20199;-53
2022/07/12 03:10:32;;;;;;;3.57;3.27;;;;;;;;;;5093751;28;20305;-53
2022/07/12 03:12:58;;;;;;;4.77;4.03;;;;;;;;;;5093717;28;20199;-53
2022/07/12 03:15:24;;;;;;;4.30;4.00;;;;;;;;;;5093066;28;20343;-53
2022/07/12 03:17:50;;;;;;;4.83;4.40;;;;;;;;;;5092963;28;20755;-52
2022/07/12 03:20:16;;;;;;;4.30;4.00;;;;;;;;;;5093442;28;20245;-52
2022/07/12 03:22:46;;;;;;;3.70;3.50;;;;;;;;;;5093416;28;20719;-52
2022/07/12 03:25:13;;;;;;;4.30;4.00;;;;;;;;;;5093418;28;20661;-52
2022/07/12 03:27:39;;;;;;;4.50;4.20;;;;;;;;;;5093297;28;20397;-53
2022/07/12 03:30:06;;;;;;;4.50;4.10;;;;;;;;;;5093227;28;20584;-53
2022/07/12 03:32:32;;;;;;;4.63;4.23;;;;;;;;;;5093010;28;20680;-53
2022/07/12 03:34:58;;;;;;;5.03;4.60;;;;;;;;;;5093168;28;20187;-53
2022/07/12 03:37:24;;;;;;;4.57;4.17;;;;;;;;;;5093088;28;20218;-53
2022/07/12 03:39:53;;;;;;;5.30;4.90;;;;;;;;;;5092865;28;20210;-53
2022/07/12 03:42:19;;;;;;;4.53;4.23;;;;;;;;;;5093190;28;20203;-53
2022/07/12 03:44:45;;;;;;;5.90;5.40;;;;;;;;;;5093029;28;20278;-53
2022/07/12 03:47:11;;;;;;;5.67;5.13;;;;;;;;;;5092953;28;20934;-53
2022/07/12 03:49:37;;;;;;;6.10;5.60;;;;;;;;;;5092851;28;20202;-52
2022/07/12 03:52:03;;;;;;;5.70;5.30;;;;;;;;;;5093011;28;20558;-53
2022/07/12 03:54:30;;;;;;;6.20;5.60;;;;;;;;;;5092903;28;20203;-53
2022/07/12 03:57:15;;;;;;;6.77;6.17;;;;;;;;;;5092826;28;20194;-52
2022/07/12 03:59:41;;;;;;;6.23;5.73;;;;;;;;;;5092654;28;20222;-53
2022/07/12 04:02:07;;;;;;;6.30;5.80;;;;;;;;;;5092786;28;20195;-50
2022/07/12 04:04:33;;;;;;;6.43;5.83;;;;;;;;;;5092716;28;20274;-52
2022/07/12 04:06:59;;;;;;;6.70;6.20;;;;;;;;;;5092581;28;20286;-52
2022/07/12 04:09:25;;;;;;;7.00;6.47;;;;;;;;;;5092656;28;20194;-52
2022/07/12 04:11:51;;;;;;;6.23;5.73;;;;;;;;;;5092455;28;20723;-52
2022/07/12 04:14:18;;;;;;;6.13;5.63;;;;;;;;;;5092435;28;20195;-52
2022/07/12 04:16:44;;;;;;;6.00;5.50;;;;;;;;;;5092298;28;20198;-52
2022/07/12 04:19:10;;;;;;;6.53;6.03;;;;;;;;;;5092309;28;20696;-52
2022/07/12 04:21:36;;;;;;;5.47;5.07;;;;;;;;;;5092151;28;20233;-52
2022/07/12 04:24:02;;;;;;;6.13;5.63;;;;;;;;;;5091233;28;20573;-52
2022/07/12 04:26:28;;;;;;;7.40;6.80;;;;;;;;;;5092538;28;20199;-52
2022/07/12 04:28:54;;;;;;;7.00;6.40;;;;;;;;;;5092313;28;20286;-52
2022/07/12 04:31:22;;;;;;;8.03;7.43;;;;;;;;;;5092361;28;20198;-52
2022/07/12 04:33:47;;;;;;;7.17;6.60;;;;;;;;;;5092203;28;20199;-51
2022/07/12 04:36:13;;;;;;;7.70;7.00;;;;;;;;;;5092316;28;20203;-52
2022/07/12 04:38:39;;;;;;;6.93;6.33;;;;;;;;;;5092116;28;20543;-51
2022/07/12 04:41:06;;;;;;;6.73;6.23;;;;;;;;;;5092316;28;20245;-51
2022/07/12 04:43:32;;;;;;;7.30;6.70;;;;;;;;;;5091942;28;20242;-50
2022/07/12 04:46:05;;;;;;;8.57;7.87;;;;;;;;;;5091921;28;20683;-50
2022/07/12 04:48:33;;;;;;;8.40;7.80;;;;;;;;;;5092022;28;20233;-51
2022/07/12 04:50:59;;;;;;;9.73;8.93;;;;;;;;;;5092062;28;20290;-51
2022/07/12 04:53:24;;;;;;;9.60;8.80;;;;;;;;;;5091999;28;20663;-51
2022/07/12 04:55:50;;;;;;;9.27;8.47;;;;;;;;;;5091951;28;20203;-51
2022/07/12 04:58:16;;;;;;;10.00;9.20;;;;;;;;;;5092074;28;20250;-51
2022/07/12 05:00:43;;;;;;;9.53;8.83;;;;;;;;;;5091767;28;20238;-50
2022/07/12 05:03:09;;;;;;;10.00;9.20;;;;;;;;;;5091952;28;20199;-50
2022/07/12 05:05:37;;;;;;;9.30;8.60;;;;;;;;;;5091637;28;20624;-52
2022/07/12 05:08:04;;;;;;;10.13;9.33;;;;;;;;;;5091890;28;20673;-50
2022/07/12 05:10:30;;;;;;;9.67;8.97;;;;;;;;;;5091780;28;20211;-50
2022/07/12 05:12:56;;;;;;;10.23;9.50;;;;;;;;;;5091575;28;20602;-52
2022/07/12 05:15:22;;;;;;;8.83;8.20;;;;;;;;;;5091392;28;20306;-52
2022/07/12 05:17:48;;;;;;;9.00;8.40;;;;;;;;;;5091921;28;20309;-50
2022/07/12 05:20:14;;;;;;;8.60;7.90;;;;;;;;;;5095425;28;20661;-50
2022/07/12 05:22:41;;;;;;;8.80;8.10;;;;;;;;;;5095697;28;20661;-50
2022/07/12 05:25:08;;;;;;;9.03;8.33;;;;;;;;;;5095692;28;20223;-50
2022/07/12 05:27:34;;;;;;;9.20;8.50;;;;;;;;;;5095915;28;20206;-51
2022/07/12 05:30:00;;;;;;;8.33;7.73;;;;;;;;;;5095795;28;20195;-51
2022/07/12 05:32:26;;;;;;;8.20;7.60;;;;;;;;;;5095446;28;20284;-51
2022/07/12 05:34:52;;;;;;;8.70;8.10;;;;;;;;;;5095316;28;20218;-51
2022/07/12 05:37:18;;;;;;;8.20;7.40;;;;;;;;;;5095401;28;20251;-51
2022/07/12 05:39:46;;;;;;;7.63;7.03;;;;;;;;;;5095297;28;20203;-51
2022/07/12 05:42:12;;;;;;;8.63;7.83;;;;;;;;;;5095086;28;20684;-50
2022/07/12 05:44:38;;;;;;;9.13;8.43;;;;;;;;;;5094777;28;20679;-50
2022/07/12 05:47:04;;;;;;;9.47;8.67;;;;;;;;;;5095419;28;20191;-51
2022/07/12 05:49:30;;;;;;;8.77;8.17;;;;;;;;;;5094536;28;20203;-51
2022/07/12 05:54:41;;;;;;;9.27;8.60;;;;;;;;;;5094940;28;20285;-50
2022/07/12 05:57:08;;;;;;;8.23;7.63;;;;;;;;;;5094926;28;20207;-51
2022/07/12 05:59:35;;;;;;;8.00;7.40;;;;;;;;;;5094917;28;20218;-51
2022/07/12 06:02:01;;;;;;;8.23;7.63;;;;;;;;;;5094810;28;20199;-51
2022/07/12 06:04:27;;;;;;;8.27;7.60;;;;;;;;;;5094692;28;20203;-51
2022/07/12 06:06:53;;;;;;;7.63;7.03;;;;;;;;;;5094714;28;20248;-52
2022/07/12 06:09:19;;;;;;;8.20;7.43;;;;;;;;;;5094882;28;20179;-51
2022/07/12 06:11:45;;;;;;;7.80;7.20;;;;;;;;;;5094682;28;20215;-51
2022/07/12 06:14:13;;;;;;;8.07;7.47;;;;;;;;;;5094743;28;20196;-51
2022/07/12 06:16:39;;;;;;;8.13;7.53;;;;;;;;;;5094737;28;20222;-51
2022/07/12 06:19:05;;;;;;;7.93;7.33;;;;;;;;;;5094724;28;20585;-53
2022/07/12 06:21:30;;;;;;;6.90;6.40;;;;;;;;;;5094540;28;20282;-52
2022/07/12 06:23:56;;;;;;;7.07;6.57;;;;;;;;;;5094696;28;20290;-52
2022/07/12 06:26:22;;;;;;;6.53;6.03;;;;;;;;;;5094730;28;20205;-52
2022/07/12 06:28:48;;;;;;;6.63;6.13;;;;;;;;;;5094269;28;20739;-53
2022/07/12 06:31:16;;;;;;;6.30;5.90;;;;;;;;;;5093681;28;20205;-52
2022/07/12 06:33:42;;;;;;;7.20;6.60;;;;;;;;;;5094273;28;20271;-52
2022/07/12 06:36:08;;;;;;;6.90;6.30;;;;;;;;;;5094461;28;20670;-52
2022/07/12 06:38:34;;;;;;;6.93;6.23;;;;;;;;;;5094481;28;20286;-53
2022/07/12 06:41:00;;;;;;;6.80;6.30;;;;;;;;;;5093980;28;20567;-52
2022/07/12 06:43:26;;;;;;;7.90;7.20;;;;;;;;;;5094329;28;20275;-51
2022/07/12 06:45:52;;;;;;;6.77;6.27;;;;;;;;;;5094089;28;20222;-52
2022/07/12 06:48:20;;;;;;;6.93;6.43;;;;;;;;;;5094185;28;20255;-53
2022/07/12 06:50:46;;;;;;;6.80;6.17;;;;;;;;;;5094088;28;20201;-53
2022/07/12 06:53:12;;;;;;;6.10;5.70;;;;;;;;;;5094037;28;20248;-51
2022/07/12 06:55:38;;;;;;;5.20;4.80;;;;;;;;;;5093790;28;20208;-53
2022/07/12 06:58:04;;;;;;;4.90;4.60;;;;;;;;;;5094186;28;20226;-51
2022/07/12 07:00:30;;;;;;;5.10;4.70;;;;;;;;;;5094043;28;20262;-50
2022/07/12 07:02:56;;;;;;;4.80;4.50;;;;;;;;;;5093803;28;20679;-52
2022/07/12 07:05:24;;;;;;;5.03;4.63;;;;;;;;;;5093732;28;20199;-52
2022/07/12 07:07:50;;;;;;;4.60;4.30;;;;;;;;;;5093704;28;20196;-51
2022/07/12 07:10:16;;;;;;;9.53;5.10;;;;;;;;;;5093694;28;20247;-52
2022/07/12 07:12:42;;;;;;;4.17;3.87;;;;;;;;;;5093114;28;20289;-52
2022/07/12 07:15:08;;;;;;;3.63;3.33;;;;;;;;;;5093547;28;20203;-51
2022/07/12 07:17:34;;;;;;;3.47;3.17;;;;;;;;;;5091934;28;20239;-51
2022/07/12 07:20:00;;;;;;;3.73;3.43;;;;;;;;;;5093407;28;20251;-51
2022/07/12 07:22:28;;;;;;;4.40;4.00;;;;;;;;;;5093614;28;20191;-51
2022/07/12 07:24:54;;;;;;;3.43;3.23;;;;;;;;;;5093130;28;20213;-51
2022/07/12 07:27:20;;;;;;;3.40;3.13;;;;;;;;;;5093626;28;20199;-49
2022/07/12 07:32:31;;;;;;;3.50;3.30;;;;;;;;;;5093643;28;20712;-50
2022/07/12 07:34:57;;;;;;;3.37;3.10;;;;;;;;;;5093274;28;20194;-49
2022/07/12 07:37:23;;;;;;;3.87;3.57;;;;;;;;;;5093256;28;20210;-51
2022/07/12 07:39:50;;;;;;;4.13;3.83;;;;;;;;;;5093260;28;20225;-49
2022/07/12 07:42:16;;;;;;;4.03;3.73;;;;;;;;;;5093166;28;20221;-52
2022/07/12 07:44:42;;;;;;;4.10;3.70;;;;;;;;;;5088483;28;20279;-50
2022/07/12 07:47:08;;;;;;;3.67;3.37;;;;;;;;;;5093110;28;20289;-51
2022/07/12 07:49:34;;;;;;;3.17;2.97;;;;;;;;;;5093025;28;20281;-50
2022/07/12 07:52:01;;;;;;;3.10;2.80;;;;;;;;;;5093041;28;20290;-50
2022/07/12 07:54:26;;;;;;;3.13;2.93;;;;;;;;;;5092867;28;20688;-50
2022/07/12 07:56:54;;;;;;;2.90;2.60;;;;;;;;;;5092297;28;20203;-52
2022/07/12 07:59:20;;;;;;;2.90;2.70;;;;;;;;;;5092809;28;20226;-52
2022/07/12 08:01:47;;;;;;;3.00;2.80;;;;;;;;;;5092786;28;20606;-52
2022/07/12 08:04:14;;;;;;;3.23;2.93;;;;;;;;;;5092806;28;20273;-50
2022/07/12 08:06:40;;;;;;;3.23;2.97;;;;;;;;;;5092367;28;20229;-50
2022/07/12 08:09:07;;;;;;;2.80;2.60;;;;;;;;;;5092715;28;20191;-53
2022/07/12 08:11:33;;;;;;;3.67;2.67;;;;;;;;;;5092803;28;20203;-51
2022/07/12 08:14:00;;;;;;;2.97;2.60;;;;;;;;;;5092454;28;20195;-52
2022/07/12 08:16:26;;;;;;;3.13;2.67;;;;;;;;;;5092467;28;20199;-52
2022/07/12 08:18:52;;;;;;;2.70;2.50;;;;;;;;;;5090475;28;20230;-51
2022/07/12 08:21:18;;;;;;;2.63;2.43;;;;;;;;;;5092431;28;20261;-52
2022/07/12 08:23:44;;;;;;;2.70;2.50;;;;;;;;;;5089468;28;20226;-52
2022/07/12 08:26:10;;;;;;;2.33;2.10;;;;;;;;;;5090537;28;20316;-53
2022/07/12 08:28:36;;;;;;;2.97;2.33;;;;;;;;;;5091152;28;20219;-52
2022/07/12 08:31:04;;;;;;;2.30;2.10;;;;;;;;;;5091931;28;20198;-53
2022/07/12 08:33:30;;;;;;;2.70;2.40;;;;;;;;;;5091616;28;20187;-52
2022/07/12 08:35:56;;;;;;;2.50;2.30;;;;;;;;;;5091651;28;20585;-52
2022/07/12 08:38:22;;;;;;;2.33;2.13;;;;;;;;;;5091701;28;20276;-52
2022/07/12 08:40:48;;;;;;;2.83;2.53;;;;;;;;;;5091999;28;20198;-52
2022/07/12 08:43:14;;;;;;;2.40;2.20;;;;;;;;;;5091838;28;20195;-52
2022/07/12 08:45:43;;;;;;;2.73;2.20;;;;;;;;;;5091853;28;20257;-52
2022/07/12 08:48:10;;;;;;;2.70;2.50;;;;;;;;;;5091763;28;20532;-53
2022/07/12 08:50:36;;;;;;;2.47;2.33;;;;;;;;;;5091791;28;20191;-52
2022/07/12 08:53:02;;;;;;;2.10;1.90;;;;;;;;;;5091195;28;20196;-53
2022/07/12 08:55:30;;;;;;;3.27;1.90;;;;;;;;;;5091802;28;20197;-52
2022/07/12 08:57:57;;;;;;;2.60;2.40;;;;;;;;;;5091611;28;20230;-52
2022/07/12 09:00:23;;;;;;;2.13;1.80;;;;;;;;;;5091576;28;20220;-52
2022/07/12 09:02:50;;;;;;;2.67;1.53;;;;;;;;;;5091759;28;20201;-52
2022/07/12 09:05:20;;;;;;;1.90;1.80;;;;;;;;;;5092124;28;20615;-53
2022/07/12 09:07:46;;;;;;;1.77;1.60;;;;;;;;;;5092115;28;20200;-54
2022/07/12 09:10:13;;;;;;;2.80;1.70;;;;;;;;;;5091954;28;20225;-52
2022/07/12 09:12:40;;;;;;;1.63;1.53;;;;;;;;;;5091743;28;20203;-53
2022/07/12 09:15:17;;;;;;;1.63;1.50;;;;;;;;;;5091744;28;20661;-52
2022/07/12 09:17:47;;;;;;;1.53;1.43;;;;;;;;;;5091584;28;20654;-52
2022/07/12 09:20:13;;;;;;;1.67;1.57;;;;;;;;;;5091720;28;20708;-53
2022/07/12 09:22:47;;;;;;;1.50;1.40;;;;;;;;;;5091907;28;20236;-52
2022/07/12 09:25:17;;;;;;;1.60;1.50;;;;;;;;;;5091988;28;20216;-52
2022/07/12 09:27:47;;;;;;;1.67;1.57;;;;;;;;;;5091791;28;20301;-52
2022/07/12 09:30:13;;;;;;;2.23;1.70;;;;;;;;;;5091839;28;20225;-52
2022/07/12 09:38:20;;;;;;;2.40;1.90;;;;;;;;;;5091825;28;20232;-52
2022/07/12 09:40:46;;;;;;;3.20;1.50;;;;;;;;;;5091681;28;20571;-51
2022/07/12 09:43:13;;;;;;;2.07;1.50;;;;;;;;;;5091853;28;20217;-52
2022/07/12 09:45:40;;;;;;;3.00;1.67;;;;;;;;;;5091615;28;20222;-52
2022/07/12 09:48:08;;;;;;;1.80;1.33;;;;;;;;;;5091767;28;20204;-51
2022/07/12 09:50:35;;;;;;;1.63;1.53;;;;;;;;;;5091512;28;20632;-53
2022/07/12 09:53:03;;;;;;;1.63;1.43;;;;;;;;;;5091513;28;20620;-53
2022/07/12 09:55:33;;;;;;;2.07;1.33;;;;;;;;;;5091756;28;20258;-53
2022/07/12 09:58:01;;;;;;;1.40;1.30;;;;;;;;;;5091515;28;20214;-52
2022/07/12 10:00:27;;;;;;;1.83;1.30;;;;;;;;;;5091378;28;20685;-54
2022/07/12 10:02:55;;;;;;;1.67;1.57;;;;;;;;;;5091442;28;20572;-52
2022/07/12 10:05:21;;;;;;;1.50;1.40;;;;;;;;;;5094402;28;20200;-52
2022/07/12 10:07:47;;;;;;;1.53;1.40;;;;;;;;;;5095182;28;20274;-53
2022/07/12 10:10:14;;;;;;;1.40;1.30;;;;;;;;;;5095201;28;20192;-52
2022/07/12 10:12:42;;;;;;;1.60;1.50;;;;;;;;;;5094966;28;20559;-52
2022/07/12 10:15:10;;;;;;;1.57;1.47;;;;;;;;;;5094923;28;20206;-53
2022/07/12 10:17:36;;;;;;;1.40;1.30;;;;;;;;;;5094691;28;20218;-53
2022/07/12 10:20:15;;;;;;;1.40;1.30;;;;;;;;;;5094505;28;20203;-53
2022/07/12 10:22:41;;;;;;;1.33;1.23;;;;;;;;;;5094873;28;20192;-53
2022/07/12 10:25:28;;;;;;;3.53;1.40;;;;;;;;;;5094766;28;20693;-53
2022/07/12 10:27:55;;;;;;;1.30;1.20;;;;;;;;;;5094709;28;20211;-53
2022/07/12 10:30:22;;;;;;;1.50;1.40;;;;;;;;;;5094345;28;20205;-53
2022/07/12 10:32:49;;;;;;;1.30;1.20;;;;;;;;;;5094271;28;20210;-52
2022/07/12 10:35:17;;;;;;;1.37;1.27;;;;;;;;;;5094330;28;20266;-53
2022/07/12 10:38:03;;;;;;;2.83;1.20;;;;;;;;;;5094365;28;20216;-53
2022/07/12 10:40:34;;;;;;;1.37;1.27;;;;;;;;;;5094382;28;20192;-52
2022/07/12 10:43:17;;;;;;;1.40;1.30;;;;;;;;;;5094255;28;20208;-53
2022/07/12 10:45:44;;;;;;;1.87;1.20;;;;;;;;;;5094452;28;20255;-53
2022/07/12 10:48:19;;;;;;;1.00;1.00;;;;;;;;;;5094234;28;20190;-53
2022/07/12 10:50:58;;;;;;;1.20;1.10;;;;;;;;;;5094157;28;20193;-53
2022/07/12 10:53:25;;;;;;;1.50;1.40;;;;;;;;;;5094022;28;20746;-60
2022/07/12 10:56:10;;;;;;;1.40;1.30;;;;;;;;;;5093901;28;20198;-55
2022/07/12 10:58:38;;;;;;;2.23;1.27;;;;;;;;;;5093915;28;20222;-59
2022/07/12 11:01:05;;;;;;;2.90;1.07;;;;;;;;;;5094080;28;20272;-60
2022/07/12 11:03:32;;;;;;;0.90;0.90;;;;;;;;;;5094066;28;20201;-53
2022/07/12 11:06:02;;;;;;;1.30;1.20;;;;;;;;;;5093663;28;20240;-53
2022/07/12 11:08:28;;;;;;;1.30;1.10;;;;;;;;;;5091213;28;20200;-53
2022/07/12 11:10:55;;;;;;;1.00;1.00;;;;;;;;;;5093595;28;20250;-53
2022/07/12 11:13:22;;;;;;;1.10;1.00;;;;;;;;;;5091995;28;20206;-54
2022/07/12 11:15:57;;;;;;;1.63;0.90;;;;;;;;;;5093025;28;20276;-54
2022/07/12 11:18:29;;;;;;;1.13;1.00;;;;;;;;;;5092916;28;20236;-54
2022/07/12 11:20:56;;;;;;;2.03;1.13;;;;;;;;;;5093003;28;20737;-53
2022/07/12 11:23:22;;;;;;;1.43;1.00;;;;;;;;;;5093619;28;20204;-54
2022/07/12 11:25:48;;;;;;;1.33;1.10;;;;;;;;;;5093400;28;20226;-54
2022/07/12 11:28:14;;;;;;;0.90;0.90;;;;;;;;;;5093357;28;20202;-54
2022/07/12 11:30:48;;;;;;;1.77;1.20;;;;;;;;;;5093142;28;20197;-53
2022/07/12 11:33:16;;;;;;;5.40;1.20;;;;;;;;;;5093301;28;20695;-53
2022/07/12 11:35:44;;;;;;;1.20;1.10;;;;;;;;;;5093188;28;20274;-54
2022/07/12 11:38:10;;;;;;;1.27;1.10;;;;;;;;;;5093365;28;20225;-53
2022/07/12 11:40:36;;;;;;;1.30;0.67;;;;;;;;;;5091202;28;20678;-52
2022/07/12 11:43:04;;;;;;;0.90;0.90;;;;;;;;;;5092930;28;20315;-52
2022/07/12 11:45:31;;;;;;;0.93;0.90;;;;;;;;;;5092977;28;20239;-52
2022/07/12 11:47:58;;;;;;;1.40;0.90;;;;;;;;;;5092735;28;20233;-52
2022/07/12 11:50:26;;;;;;;1.47;0.80;;;;;;;;;;5093132;28;20199;-53
2022/07/12 11:52:52;;;;;;;5.93;0.97;;;;;;;;;;5092625;28;20202;-53
2022/07/12 11:55:18;;;;;;;0.80;0.80;;;;;;;;;;5092830;28;20211;-52
2022/07/12 11:57:44;;;;;;;0.90;0.90;;;;;;;;;;5092551;28;20197;-52
2022/07/12 12:00:14;;;;;;;0.87;0.87;;;;;;;;;;5092670;28;20637;-52
2022/07/12 12:02:40;;;;;;;1.90;0.90;;;;;;;;;;5092408;28;20224;-52
2022/07/12 12:05:07;;;;;;;2.37;0.90;;;;;;;;;;5092451;28;20662;-52
2022/07/12 12:07:34;;;;;;;0.63;0.63;;;;;;;;;;5092582;28;20225;-51
2022/07/12 12:10:01;;;;;;;0.63;0.63;;;;;;;;;;5092483;28;20205;-52
2022/07/12 12:12:27;;;;;;;0.73;0.70;;;;;;;;;;5092499;28;20227;-52
2022/07/12 12:14:53;;;;;;;0.70;0.63;;;;;;;;;;5092191;28;20213;-52
2022/07/12 12:17:19;;;;;;;1.93;0.80;;;;;;;;;;5092353;28;20639;-51
2022/07/12 12:19:46;;;;;;;1.00;0.90;;;;;;;;;;5092245;28;20233;-51
2022/07/12 12:22:27;;;;;;;1.63;0.90;;;;;;;;;;5092015;28;20245;-51
2022/07/12 12:25:00;;;;;;;3.50;0.93;;;;;;;;;;5092339;28;20200;-51
2022/07/12 12:27:26;;;;;;;1.10;0.93;;;;;;;;;;5091318;28;20200;-52
2022/07/12 12:29:53;;;;;;;1.27;0.90;;;;;;;;;;5092090;28;20198;-52
2022/07/12 12:32:18;;;;;;;0.80;0.70;;;;;;;;;;5092112;28;20220;-51
2022/07/12 12:34:59;;;;;;;0.93;0.63;;;;;;;;;;5092109;28;20193;-52
2022/07/12 12:37:25;;;;;;;1.37;0.90;;;;;;;;;;5091813;28;20579;-52
2022/07/12 12:39:51;;;;;;;0.80;0.80;;;;;;;;;;5091843;28;20706;-51
2022/07/12 12:42:25;;;;;;;0.80;0.80;;;;;;;;;;5092173;28;20204;-51
2022/07/12 12:44:51;;;;;;;0.80;0.80;;;;;;;;;;5091948;28;20739;-51
2022/07/12 12:47:33;;;;;;;1.20;1.07;;;;;;;;;;5091965;28;20601;-51
2022/07/12 12:50:02;;;;;;;0.77;0.77;;;;;;;;;;5091835;28;20198;-52
2022/07/12 12:52:29;;;;;;;1.00;1.00;;;;;;;;;;5091831;28;20200;-52
2022/07/12 12:54:55;;;;;;;1.03;0.90;;;;;;;;;;5091627;28;20279;-52
2022/07/12 12:57:24;;;;;;;1.00;0.90;;;;;;;;;;5091855;28;20206;-51
2022/07/12 12:59:51;;;;;;;0.80;0.80;;;;;;;;;;5091666;28;20242;-51
2022/07/12 13:02:18;;;;;;;0.83;0.83;;;;;;;;;;5091755;28;20667;-51
2022/07/12 13:04:44;;;;;;;1.00;1.00;;;;;;;;;;5091660;28;20210;-51
2022/07/12 13:07:10;;;;;;;1.50;1.40;;;;;;;;;;5091573;28;20200;-52
2022/07/12 13:09:36;;;;;;;1.37;1.27;;;;;;;;;;5091648;28;20615;-51
2022/07/12 13:12:04;;;;;;;1.97;1.60;;;;;;;;;;5091654;28;20216;-50
2022/07/12 13:14:30;;;;;;;2.07;1.60;;;;;;;;;;5091593;28;20607;-51
2022/07/12 13:16:57;;;;;;;2.30;1.70;;;;;;;;;;5091400;28;20202;-51
2022/07/12 13:19:24;;;;;;;2.43;1.80;;;;;;;;;;5091338;28;20223;-51
2022/07/12 13:21:50;;;;;;;2.70;1.80;;;;;;;;;;5091294;28;20735;-52
2022/07/12 13:24:16;;;;;;;2.10;1.67;;;;;;;;;;5091702;28;20281;-50
2022/07/12 13:26:42;;;;;;;1.80;1.70;;;;;;;;;;5091505;28;20543;-52
2022/07/12 13:29:08;;;;;;;1.60;1.50;;;;;;;;;;5091386;28;20198;-52
2022/07/12 13:31:34;;;;;;;1.90;1.80;;;;;;;;;;5091462;28;20202;-51
2022/07/12 13:34:01;;;;;;;1.80;1.53;;;;;;;;;;5091349;28;20205;-52
2022/07/12 13:36:28;;;;;;;1.97;1.67;;;;;;;;;;5091501;28;20233;-51
2022/07/12 13:38:54;;;;;;;1.80;1.60;;;;;;;;;;5092014;28;20591;-50
2022/07/12 13:41:20;;;;;;;1.90;1.80;;;;;;;;;;5095185;28;20737;-50
2022/07/12 13:43:47;;;;;;;1.80;1.70;;;;;;;;;;5095095;28;20273;-50
2022/07/12 13:46:13;;;;;;;2.00;1.90;;;;;;;;;;5094745;28;20201;-51
2022/07/12 13:48:39;;;;;;;2.00;1.90;;;;;;;;;;5095130;28;20641;-51
2022/07/12 13:51:06;;;;;;;2.17;2.00;;;;;;;;;;5095068;28;20202;-51
2022/07/12 13:53:32;;;;;;;1.80;1.70;;;;;;;;;;5095633;28;20296;-51
2022/07/12 13:55:59;;;;;;;2.17;1.80;;;;;;;;;;5094967;28;20233;-51
2022/07/12 13:58:25;;;;;;;2.93;1.77;;;;;;;;;;5087465;28;20257;-49
2022/07/12 14:00:51;;;;;;;2.10;1.80;;;;;;;;;;5094658;28;20221;-49
2022/07/12 14:03:17;;;;;;;1.80;1.70;;;;;;;;;;5094965;28;20232;-49
2022/07/12 14:05:43;;;;;;;2.03;1.90;;;;;;;;;;5094803;28;20228;-50
2022/07/12 14:08:10;;;;;;;2.03;1.90;;;;;;;;;;5094954;28;20586;-50
2022/07/12 14:10:36;;;;;;;1.80;1.70;;;;;;;;;;5094459;28;20198;-48
2022/07/12 14:13:02;;;;;;;2.50;1.90;;;;;;;;;;5094806;28;20197;-49
2022/07/12 14:15:38;;;;;;;2.00;1.43;;;;;;;;;;5094839;28;20323;-49
2022/07/12 14:18:05;;;;;;;1.60;1.50;;;;;;;;;;5094051;28;20212;-49
2022/07/12 14:20:31;;;;;;;1.53;1.43;;;;;;;;;;5094855;28;20253;-50
2022/07/12 14:22:57;;;;;;;4.10;1.73;;;;;;;;;;5094648;28;20197;-49
2022/07/12 14:25:25;;;;;;;1.70;1.60;;;;;;;;;;5094691;28;20300;-50
2022/07/12 14:27:51;;;;;;;3.63;1.47;;;;;;;;;;5094486;28;20296;-50
2022/07/12 14:30:17;;;;;;;1.50;1.40;;;;;;;;;;5093085;28;20223;-49
2022/07/12 14:32:43;;;;;;;2.37;1.40;;;;;;;;;;5094438;28;20671;-49
2022/07/12 14:35:10;;;;;;;3.53;1.43;;;;;;;;;;5094448;28;20228;-49
2022/07/12 14:37:36;;;;;;;2.50;1.27;;;;;;;;;;5094541;28;20212;-49
2022/07/12 14:40:02;;;;;;;3.27;1.43;;;;;;;;;;5094289;28;20226;-49
2022/07/12 14:42:30;;;;;;;2.13;1.50;;;;;;;;;;5094358;28;20200;-49
2022/07/12 14:44:56;;;;;;;1.70;1.60;;;;;;;;;;5094395;28;20208;-49
2022/07/12 14:47:22;;;;;;;1.67;1.57;;;;;;;;;;5094094;28;20207;-50
2022/07/12 14:49:48;;;;;;;2.13;1.93;;;;;;;;;;5093538;28;20196;-49
2022/07/12 14:52:15;;;;;;;2.30;1.50;;;;;;;;;;5093356;28;20203;-50